createdAt,value
2022-11-17T00:01:53.049Z,11.50
2022-11-17T00:04:38.640Z,11.40
2022-11-17T00:07:23.937Z,11.30
2022-11-17T00:10:09.378Z,11.20
2022-11-17T00:13:13.908Z,11.30
2022-11-17T00:15:59.558Z,11.50
2022-11-17T00:19:05.473Z,11.50
2022-11-17T00:21:52.643Z,11.40
2022-11-17T00:24:38.141Z,11.50
2022-11-17T00:27:23.836Z,11.30
2022-11-17T00:30:29.669Z,11.50
2022-11-17T00:33:34.302Z,11.40
2022-11-17T00:36:24.572Z,11.40
2022-11-17T00:39:10.948Z,11.50
2022-11-17T00:41:56.774Z,11.50
2022-11-17T00:44:42.457Z,11.40
2022-11-17T00:47:27.676Z,11.30
2022-11-17T00:50:13.303Z,11.30
2022-11-17T00:53:00.416Z,11.30
2022-11-17T00:55:45.713Z,11.20
2022-11-17T00:58:31.519Z,11.30
2022-11-17T01:01:17.056Z,11.20
2022-11-17T01:04:03.520Z,11.30
2022-11-17T01:06:49.895Z,11.20
2022-11-17T01:09:36.877Z,11.10
2022-11-17T01:12:22.543Z,11.30
2022-11-17T01:15:08.881Z,11.40
2022-11-17T01:17:54.352Z,11.40
2022-11-17T01:20:40.070Z,11.50
2022-11-17T01:23:25.801Z,11.30
2022-11-17T01:26:14.554Z,11.50
2022-11-17T01:29:00.428Z,11.60
2022-11-17T01:31:49.164Z,11.90
2022-11-17T01:34:34.581Z,12.00
2022-11-17T01:37:20.475Z,12.00
2022-11-17T01:40:06.500Z,11.90
2022-11-17T01:42:53.539Z,11.80
2022-11-17T01:45:39.258Z,11.80
2022-11-17T01:48:24.997Z,11.60
2022-11-17T01:51:11.218Z,11.60
2022-11-17T01:53:57.293Z,11.60
2022-11-17T01:56:44.671Z,11.60
2022-11-17T01:59:33.817Z,11.70
2022-11-17T02:02:19.589Z,11.90
2022-11-17T02:05:10.332Z,12.00
2022-11-17T02:07:57.301Z,12.00
2022-11-17T02:10:48.570Z,12.00
2022-11-17T02:13:37.789Z,11.90
2022-11-17T02:16:24.676Z,11.90
2022-11-17T02:19:12.016Z,12.10
2022-11-17T02:22:07.404Z,12.30
2022-11-17T02:25:04.643Z,12.20
2022-11-17T02:28:00.405Z,12.20
2022-11-17T02:30:52.666Z,12.20
2022-11-17T02:33:45.297Z,12.10
2022-11-17T02:36:32.612Z,12.00
2022-11-17T02:39:20.189Z,12.00
2022-11-17T02:42:09.231Z,12.10
2022-11-17T02:44:57.725Z,12.10
2022-11-17T02:47:45.385Z,12.20
2022-11-17T02:50:31.828Z,12.30
2022-11-17T02:53:18.647Z,12.40
2022-11-17T02:56:04.214Z,12.30
2022-11-17T02:58:51.417Z,12.50
2022-11-17T03:01:55.020Z,12.50
2022-11-17T03:04:45.939Z,12.70
2022-11-17T03:07:36.723Z,13.00
2022-11-17T03:10:27.698Z,12.80
2022-11-17T03:13:17.942Z,12.40
2022-11-17T03:16:10.123Z,12.60
2022-11-17T03:19:01.611Z,12.50
2022-11-17T03:21:51.201Z,12.60
2022-11-17T03:24:39.580Z,12.50
2022-11-17T03:27:26.257Z,12.60
2022-11-17T03:30:12.462Z,12.60
2022-11-17T03:32:59.954Z,12.60
2022-11-17T03:35:50.706Z,12.50
2022-11-17T03:38:40.709Z,12.50
2022-11-17T03:41:28.750Z,12.50
2022-11-17T03:44:15.335Z,12.30
2022-11-17T03:47:02.293Z,12.30
2022-11-17T03:49:50.752Z,12.40
2022-11-17T03:52:38.284Z,12.40
2022-11-17T03:55:27.520Z,12.40
2022-11-17T03:58:15.227Z,12.30
2022-11-17T04:01:01.877Z,12.30
2022-11-17T04:03:47.970Z,12.30
2022-11-17T04:06:33.546Z,12.50
2022-11-17T04:09:24.231Z,12.40
2022-11-17T04:12:30.925Z,12.50
2022-11-17T04:15:35.409Z,12.60
2022-11-17T04:18:20.962Z,12.50
2022-11-17T04:21:06.399Z,12.60
2022-11-17T04:23:52.162Z,12.50
2022-11-17T04:26:56.498Z,12.60
2022-11-17T04:29:43.221Z,12.50
2022-11-17T04:32:28.471Z,12.60
2022-11-17T04:35:13.876Z,12.40
2022-11-17T04:37:59.367Z,12.20
2022-11-17T04:41:04.970Z,12.20
2022-11-17T04:43:51.372Z,12.10
2022-11-17T04:46:39.166Z,12.20
2022-11-17T04:49:25.917Z,12.20
2022-11-17T04:52:12.069Z,12.20
2022-11-17T04:54:57.964Z,12.40
2022-11-17T04:57:43.568Z,12.60
2022-11-17T05:00:29.422Z,12.50
2022-11-17T05:03:16.652Z,12.50
2022-11-17T05:06:02.476Z,12.50
2022-11-17T05:08:49.083Z,12.60
2022-11-17T05:11:53.605Z,12.50
2022-11-17T05:14:39.447Z,12.50
2022-11-17T05:17:25.464Z,12.60
2022-11-17T05:20:12.588Z,12.70
2022-11-17T05:23:16.843Z,12.70
2022-11-17T05:26:02.041Z,12.70
2022-11-17T05:28:47.321Z,12.50
2022-11-17T05:31:32.874Z,12.50
2022-11-17T05:34:18.613Z,12.40
2022-11-17T05:37:06.336Z,12.30
2022-11-17T05:39:51.793Z,12.30
2022-11-17T05:42:37.025Z,12.40
2022-11-17T05:45:22.306Z,12.40
2022-11-17T05:48:07.542Z,12.50
2022-11-17T05:50:53.258Z,12.40
2022-11-17T05:53:40.245Z,12.30
2022-11-17T05:56:32.590Z,12.20
2022-11-17T05:59:27.564Z,12.10
2022-11-17T06:02:16.430Z,12.30
2022-11-17T06:05:02.648Z,12.40
2022-11-17T06:07:48.429Z,12.30
2022-11-17T06:10:35.692Z,12.40
2022-11-17T06:13:26.043Z,12.50
2022-11-17T06:16:12.524Z,12.60
2022-11-17T06:19:02.364Z,12.80
2022-11-17T06:22:10.742Z,12.70
2022-11-17T06:24:54.693Z,12.70
2022-11-17T06:27:41.602Z,12.50
2022-11-17T06:30:28.605Z,12.60
2022-11-17T06:33:15.511Z,12.80
2022-11-17T06:36:01.502Z,12.90
2022-11-17T06:38:47.014Z,13.00
2022-11-17T06:41:32.664Z,13.20
2022-11-17T06:44:20.221Z,13.00
2022-11-17T06:47:05.844Z,13.10
2022-11-17T06:49:51.257Z,13.10
2022-11-17T06:52:37.190Z,13.20
2022-11-17T06:55:23.067Z,13.40
2022-11-17T06:58:11.606Z,13.40
2022-11-17T07:01:02.599Z,13.50
2022-11-17T07:03:48.063Z,13.40
2022-11-17T07:06:36.048Z,13.40
2022-11-17T07:09:21.608Z,13.40
2022-11-17T07:12:07.342Z,13.40
2022-11-17T07:14:53.261Z,13.30
2022-11-17T07:17:40.376Z,13.10
2022-11-17T07:20:26.148Z,13.10
2022-11-17T07:23:11.907Z,13.20
2022-11-17T07:25:57.629Z,13.10
2022-11-17T07:28:43.429Z,13.20
2022-11-17T07:31:29.083Z,13.20
2022-11-17T07:34:16.467Z,13.30
2022-11-17T07:37:02.502Z,13.20
2022-11-17T07:39:48.051Z,13.20
2022-11-17T07:42:34.094Z,13.30
2022-11-17T07:45:21.186Z,13.20
2022-11-17T07:48:07.056Z,13.40
2022-11-17T07:50:54.097Z,13.40
2022-11-17T07:53:40.147Z,13.40
2022-11-17T07:56:25.588Z,13.40
2022-11-17T07:59:11.364Z,13.20
2022-11-17T08:01:57.451Z,13.20
2022-11-17T08:04:43.276Z,13.30
2022-11-17T08:07:30.281Z,13.30
2022-11-17T08:10:15.999Z,13.20
2022-11-17T08:13:01.699Z,13.10
2022-11-17T08:15:47.235Z,13.40
2022-11-17T08:18:33.075Z,13.40
2022-11-17T08:21:18.925Z,13.10
2022-11-17T08:24:06.036Z,13.00
2022-11-17T08:26:51.541Z,12.90
2022-11-17T08:29:37.170Z,12.70
2022-11-17T08:32:23.034Z,12.70
2022-11-17T08:35:08.742Z,12.70
2022-11-17T08:37:54.309Z,12.70
2022-11-17T08:40:41.299Z,12.50
2022-11-17T08:43:26.940Z,12.50
2022-11-17T08:46:13.466Z,12.50
2022-11-17T08:49:00.303Z,12.40
2022-11-17T08:51:45.788Z,12.30
2022-11-17T08:54:32.766Z,12.40
2022-11-17T08:57:22.016Z,12.50
2022-11-17T09:00:08.859Z,12.30
2022-11-17T09:02:54.645Z,12.50
2022-11-17T09:05:40.588Z,12.40
2022-11-17T09:11:31.883Z,12.90
2022-11-17T09:14:18.974Z,13.10
2022-11-17T09:17:04.529Z,13.00
2022-11-17T09:19:50.314Z,12.80
2022-11-17T09:22:35.914Z,12.80
2022-11-17T09:25:21.842Z,12.90
2022-11-17T09:28:07.623Z,12.80
2022-11-17T09:30:54.666Z,12.70
2022-11-17T09:33:40.280Z,12.70
2022-11-17T09:36:25.901Z,12.70
2022-11-17T09:39:11.757Z,12.70
2022-11-17T09:41:57.680Z,12.70
2022-11-17T09:44:45.831Z,12.90
2022-11-17T09:47:38.098Z,13.10
2022-11-17T09:50:27.180Z,13.00
2022-11-17T09:53:15.426Z,12.90
2022-11-17T09:56:02.135Z,13.10
2022-11-17T09:58:48.995Z,13.30
2022-11-17T10:01:34.700Z,13.20
2022-11-17T10:04:22.511Z,13.10
2022-11-17T10:07:09.645Z,13.00
2022-11-17T10:09:55.191Z,13.00
2022-11-17T10:12:44.617Z,13.00
2022-11-17T10:15:33.511Z,12.90
2022-11-17T10:18:18.864Z,12.90
2022-11-17T10:21:08.121Z,12.90
2022-11-17T10:25:22.528Z,13.00
2022-11-17T10:28:08.888Z,13.20
2022-11-17T10:30:56.433Z,12.90
2022-11-17T10:33:43.559Z,13.00
2022-11-17T10:36:30.052Z,13.00
2022-11-17T10:39:30.304Z,13.10
2022-11-17T10:42:22.675Z,13.20
2022-11-17T10:45:15.673Z,13.20
2022-11-17T10:48:16.782Z,13.20
2022-11-17T10:51:03.446Z,13.10
2022-11-17T10:54:00.864Z,13.10
2022-11-17T10:56:47.560Z,13.20
2022-11-17T10:59:42.200Z,13.30
2022-11-17T11:02:29.689Z,13.30
2022-11-17T11:05:16.530Z,13.20
2022-11-17T11:08:15.079Z,13.30
2022-11-17T11:11:01.985Z,13.30
2022-11-17T11:13:51.159Z,13.50
2022-11-17T11:16:38.575Z,13.70
2022-11-17T11:19:25.877Z,13.60
2022-11-17T11:22:26.924Z,13.50
2022-11-17T11:25:18.022Z,13.40
2022-11-17T11:28:09.456Z,13.80
2022-11-17T11:30:59.459Z,13.70
2022-11-17T11:33:50.220Z,13.60
2022-11-17T11:36:36.843Z,13.50
2022-11-17T11:39:31.956Z,13.60
2022-11-17T11:42:28.665Z,13.60
2022-11-17T11:45:18.191Z,13.60
2022-11-17T11:48:10.202Z,13.30
2022-11-17T11:50:58.155Z,13.10
2022-11-17T11:53:46.296Z,13.30
2022-11-17T11:56:33.795Z,13.40
2022-11-17T11:59:20.512Z,13.60
2022-11-17T12:02:16.568Z,13.60
2022-11-17T12:05:07.753Z,13.40
2022-11-17T12:07:57.410Z,13.30
2022-11-17T12:10:45.347Z,13.20
2022-11-17T12:13:30.985Z,13.00
2022-11-17T12:16:17.206Z,13.10
2022-11-17T12:19:03.101Z,13.00
2022-11-17T12:21:53.452Z,12.90
2022-11-17T12:24:42.246Z,13.00
2022-11-17T12:27:32.401Z,13.00
2022-11-17T12:30:51.782Z,13.20
2022-11-17T12:34:09.651Z,13.30
2022-11-17T12:37:28.573Z,13.20
2022-11-17T12:40:28.780Z,13.30
2022-11-17T12:43:23.215Z,13.40
2022-11-17T12:46:24.019Z,13.30
2022-11-17T12:49:17.152Z,13.20
2022-11-17T12:52:07.044Z,13.10
2022-11-17T12:54:56.183Z,13.10
2022-11-17T12:57:43.070Z,13.20
2022-11-17T13:00:34.573Z,13.20
2022-11-17T13:03:26.208Z,13.10
2022-11-17T13:06:34.389Z,13.10
2022-11-17T13:09:23.499Z,13.10
2022-11-17T13:12:10.642Z,13.10
2022-11-17T13:14:57.088Z,13.00
2022-11-17T13:17:44.107Z,13.10
2022-11-17T13:20:30.668Z,13.00
2022-11-17T13:23:19.091Z,13.10
2022-11-17T13:26:08.788Z,13.10
2022-11-17T13:29:02.768Z,13.30
2022-11-17T13:31:48.683Z,13.10
2022-11-17T13:34:36.095Z,13.20
2022-11-17T13:37:23.398Z,13.30
2022-11-17T13:40:18.361Z,13.20
2022-11-17T13:43:04.630Z,12.90
2022-11-17T13:45:50.695Z,13.00
2022-11-17T13:48:37.489Z,13.10
2022-11-17T13:51:35.444Z,13.20
2022-11-17T13:54:25.396Z,13.10
2022-11-17T13:57:16.128Z,13.10
2022-11-17T14:00:01.991Z,13.10
2022-11-17T14:02:55.999Z,13.00
2022-11-17T14:05:54.394Z,13.10
2022-11-17T14:08:43.056Z,13.10
2022-11-17T14:11:28.628Z,13.10
2022-11-17T14:14:19.317Z,13.00
2022-11-17T14:17:13.122Z,13.20
2022-11-17T14:20:17.628Z,13.50
2022-11-17T14:23:06.310Z,13.40
2022-11-17T14:25:54.574Z,13.70
2022-11-17T14:28:40.406Z,13.60
2022-11-17T14:31:26.198Z,13.60
2022-11-17T14:34:12.117Z,13.50
2022-11-17T14:36:58.437Z,13.60
2022-11-17T14:39:43.932Z,13.70
2022-11-17T14:42:35.986Z,13.60
2022-11-17T14:45:22.594Z,13.70
2022-11-17T14:48:08.106Z,13.70
2022-11-17T14:50:55.586Z,13.50
2022-11-17T14:53:42.144Z,13.50
2022-11-17T14:56:28.478Z,13.30
2022-11-17T14:59:15.705Z,13.50
2022-11-17T15:02:01.336Z,13.70
2022-11-17T15:04:51.195Z,13.60
2022-11-17T15:07:37.642Z,13.80
2022-11-17T15:10:23.384Z,14.00
2022-11-17T15:13:09.133Z,13.90
2022-11-17T15:16:02.157Z,14.00
2022-11-17T15:18:48.293Z,13.80
2022-11-17T15:21:34.173Z,13.70
2022-11-17T15:24:19.792Z,13.60
2022-11-17T15:27:05.778Z,13.90
2022-11-17T15:29:51.625Z,13.80
2022-11-17T15:32:38.426Z,14.10
2022-11-17T15:35:24.591Z,14.20
2022-11-17T15:38:10.088Z,14.00
2022-11-17T15:40:55.773Z,13.80
2022-11-17T15:43:42.081Z,14.00
2022-11-17T15:46:27.404Z,14.10
2022-11-17T15:49:15.522Z,14.30
2022-11-17T15:52:01.459Z,14.10
2022-11-17T15:54:47.140Z,13.90
2022-11-17T15:57:33.002Z,13.80
2022-11-17T16:00:19.129Z,13.90
2022-11-17T16:03:05.762Z,13.90
2022-11-17T16:05:52.651Z,13.80
2022-11-17T16:08:38.655Z,13.90
2022-11-17T16:11:24.830Z,13.90
2022-11-17T16:14:10.811Z,13.90
2022-11-17T16:16:56.136Z,13.80
2022-11-17T16:19:41.777Z,13.70
2022-11-17T16:22:29.119Z,13.80
2022-11-17T16:25:14.997Z,14.00
2022-11-17T16:28:00.895Z,13.80
2022-11-17T16:30:47.156Z,13.80
2022-11-17T16:33:32.657Z,13.60
2022-11-17T16:36:19.069Z,13.60
2022-11-17T16:39:06.500Z,13.60
2022-11-17T16:41:52.668Z,13.80
2022-11-17T16:44:38.436Z,13.70
2022-11-17T16:47:25.530Z,13.80
2022-11-17T16:50:11.121Z,13.80
2022-11-17T16:52:57.743Z,13.60
2022-11-17T16:55:44.602Z,13.70
2022-11-17T16:58:30.241Z,13.90
2022-11-17T17:01:16.463Z,13.70
2022-11-17T17:04:03.135Z,13.40
2022-11-17T17:06:48.883Z,13.30
2022-11-17T17:09:34.512Z,13.50
2022-11-17T17:12:22.012Z,13.50
2022-11-17T17:15:08.223Z,13.20
2022-11-17T17:17:53.647Z,13.60
2022-11-17T17:20:39.279Z,13.70
2022-11-17T17:23:25.155Z,13.70
2022-11-17T17:26:16.628Z,13.60
2022-11-17T17:29:04.703Z,13.90
2022-11-17T17:31:50.313Z,13.70
2022-11-17T17:34:35.993Z,13.60
2022-11-17T17:37:21.638Z,13.80
2022-11-17T17:40:08.064Z,13.70
2022-11-17T17:42:53.932Z,13.80
2022-11-17T17:45:41.020Z,13.50
2022-11-17T17:48:26.494Z,13.60
2022-11-17T17:51:12.726Z,13.50
2022-11-17T17:54:00.891Z,13.60
2022-11-17T17:56:47.594Z,13.60
2022-11-17T17:59:33.413Z,13.40
2022-11-17T18:02:20.335Z,13.50
2022-11-17T18:05:06.476Z,13.50
2022-11-17T18:07:52.416Z,13.50
2022-11-17T18:10:38.043Z,13.50
2022-11-17T18:13:23.679Z,13.30
2022-11-17T18:16:10.430Z,13.30
2022-11-17T18:18:58.306Z,13.40
2022-11-17T18:21:44.247Z,13.50
2022-11-17T18:24:29.515Z,13.60
2022-11-17T18:27:15.186Z,13.60
2022-11-17T18:30:00.905Z,13.60
2022-11-17T18:32:46.650Z,13.50
2022-11-17T18:35:34.813Z,13.30
2022-11-17T18:38:20.673Z,13.40
2022-11-17T18:41:07.384Z,13.00
2022-11-17T18:43:53.058Z,13.20
2022-11-17T18:46:38.690Z,13.30
2022-11-17T18:49:24.455Z,13.20
2022-11-17T18:52:11.806Z,13.20
2022-11-17T18:54:57.189Z,13.30
2022-11-17T18:57:45.928Z,13.10
2022-11-17T19:00:31.597Z,12.90
2022-11-17T19:03:17.380Z,12.90
2022-11-17T19:06:03.877Z,12.60
2022-11-17T19:08:52.040Z,12.80
2022-11-17T19:11:38.190Z,12.70
2022-11-17T19:14:24.628Z,12.90
2022-11-17T19:17:10.592Z,12.90
2022-11-17T19:19:56.451Z,12.80
2022-11-17T19:22:41.960Z,12.70
2022-11-17T19:25:29.177Z,12.80
2022-11-17T19:28:14.670Z,12.80
2022-11-17T19:31:01.036Z,12.60
2022-11-17T19:33:47.366Z,12.60
2022-11-17T19:36:33.970Z,12.80
2022-11-17T19:39:20.266Z,12.80
2022-11-17T19:42:07.860Z,12.60
2022-11-17T19:44:53.938Z,12.70
2022-11-17T19:47:39.566Z,12.50
2022-11-17T19:50:25.269Z,12.70
2022-11-17T19:53:10.938Z,12.90
2022-11-17T19:55:59.267Z,12.90
2022-11-17T19:58:46.229Z,12.80
2022-11-17T20:01:32.191Z,12.60
2022-11-17T20:04:18.189Z,12.80
2022-11-17T20:07:03.727Z,12.90
2022-11-17T20:09:49.427Z,13.00
2022-11-17T20:12:35.595Z,13.00
2022-11-17T20:15:34.073Z,12.80
2022-11-17T20:18:20.527Z,12.60
2022-11-17T20:21:06.714Z,12.90
2022-11-17T20:23:52.487Z,12.70
2022-11-17T20:26:40.733Z,12.50
2022-11-17T20:29:26.545Z,12.50
2022-11-17T20:32:13.494Z,12.60
2022-11-17T20:34:59.360Z,12.50
2022-11-17T20:37:44.997Z,12.60
2022-11-17T20:40:31.514Z,12.80
2022-11-17T20:43:17.265Z,12.70
2022-11-17T20:46:03.499Z,12.50
2022-11-17T20:48:50.746Z,12.50
2022-11-17T20:51:36.427Z,12.60
2022-11-17T20:54:21.907Z,12.70
2022-11-17T20:57:07.713Z,12.60
2022-11-17T20:59:53.163Z,12.80
2022-11-17T21:02:38.968Z,12.80
2022-11-17T21:05:25.973Z,12.60
2022-11-17T21:08:11.413Z,12.60
2022-11-17T21:10:57.373Z,12.50
2022-11-17T21:13:42.640Z,12.50
2022-11-17T21:16:28.779Z,12.50
2022-11-17T21:19:15.515Z,12.70
2022-11-17T21:22:02.761Z,12.60
2022-11-17T21:24:48.432Z,12.60
2022-11-17T21:27:34.024Z,12.60
2022-11-17T21:30:19.796Z,12.60
2022-11-17T21:33:05.693Z,12.80
2022-11-17T21:35:51.632Z,12.70
2022-11-17T21:38:38.825Z,12.60
2022-11-17T21:41:24.946Z,12.50
2022-11-17T21:44:11.417Z,12.50
2022-11-17T21:46:56.904Z,12.40
2022-11-17T21:49:42.507Z,12.30
2022-11-17T21:52:34.182Z,12.50
2022-11-17T21:55:21.429Z,12.50
2022-11-17T21:58:07.022Z,12.50
2022-11-17T22:00:52.642Z,12.60
2022-11-17T22:03:38.567Z,12.60
2022-11-17T22:06:24.953Z,12.50
2022-11-17T22:09:10.752Z,12.60
2022-11-17T22:12:01.209Z,12.50
2022-11-17T22:14:47.235Z,12.50
2022-11-17T22:17:32.595Z,12.60
2022-11-17T22:20:18.286Z,12.50
2022-11-17T22:23:04.084Z,12.50
2022-11-17T22:25:53.613Z,12.30
2022-11-17T22:28:40.801Z,12.20
2022-11-17T22:31:27.006Z,12.40
2022-11-17T22:34:13.179Z,12.10
2022-11-17T22:36:58.737Z,12.10
2022-11-17T22:39:44.807Z,12.20
2022-11-17T22:42:30.086Z,12.20
2022-11-17T22:45:17.612Z,12.40
2022-11-17T22:48:03.774Z,12.50
2022-11-17T22:50:49.594Z,12.40
2022-11-17T22:53:35.389Z,12.50
2022-11-17T22:56:20.683Z,12.40
2022-11-17T22:59:06.718Z,12.30
2022-11-17T23:01:53.682Z,12.30
2022-11-17T23:04:39.260Z,12.10
2022-11-17T23:07:25.051Z,12.30
2022-11-17T23:10:10.810Z,12.40
2022-11-17T23:12:56.469Z,12.40
2022-11-17T23:15:42.413Z,12.40
2022-11-17T23:18:29.508Z,12.30
2022-11-17T23:21:15.247Z,12.30
2022-11-17T23:24:01.094Z,12.40
2022-11-17T23:26:46.856Z,12.50
2022-11-17T23:29:32.479Z,12.10
2022-11-17T23:32:17.768Z,12.30
2022-11-17T23:35:05.364Z,12.20
2022-11-17T23:37:50.687Z,12.00
2022-11-17T23:40:36.816Z,12.00
2022-11-17T23:43:22.118Z,12.10
2022-11-17T23:46:09.726Z,12.20
2022-11-17T23:48:57.061Z,11.80
2022-11-17T23:51:44.282Z,12.00
2022-11-17T23:54:29.751Z,12.00
2022-11-17T23:57:15.334Z,12.10
